Terminal Aerodrome Forecast
Issued by NWS

Home | Current Version | Previous Version | Text Only | Print | Product List | Glossary On
Versions: 1 2 3 4 5 6 7 8 9 10 11 12 13 14 15 16 17 18 19 20 21 22 23 24 25 26
000
FTUS44 KBMX 201140
TAFASN
TAF
KASN 201140Z 2012/2112 00000KT P6SM SCT001
     FM201300 00000KT P6SM SKC
     FM201500 07005KT P6SM FEW300
     FM210000 00000KT P6SM FEW300=

USA.gov is the U.S. government's official web portal to all federal, state and local government web resources and services.